Time;durP1;ratioP1;P1;durP2;ratioP2;P2;SDS_P1;SDS_P2;PMS_P1;PMS_P2;Temp;Humidity;BMP_temperature;BMP_pressure;BME280_temperature;BME280_humidity;BME280_pressure;Samples;Min_cycle;Max_cycle;Signal;HPM_P1;HPM_P2
2023/07/28 00:01:08;;;;;;;1.93;1.83;;;17.40;99.90;;;;;;5096755;28;20176;-49
2023/07/28 00:03:33;;;;;;;1.70;1.60;;;17.30;99.90;;;;;;5095947;28;20484;-48
2023/07/28 00:05:59;;;;;;;2.60;2.00;;;17.30;99.90;;;;;;5096268;28;20199;-44
2023/07/28 00:08:25;;;;;;;1.70;1.60;;;17.40;99.90;;;;;;5096683;28;20173;-48
2023/07/28 00:10:50;;;;;;;2.93;2.40;;;17.30;99.90;;;;;;5096058;28;20507;-44
2023/07/28 00:13:16;;;;;;;2.73;2.10;;;17.40;99.90;;;;;;5095841;28;20188;-48
2023/07/28 00:15:42;;;;;;;2.27;2.07;;;17.40;99.90;;;;;;5095928;28;20418;-45
2023/07/28 00:18:07;;;;;;;4.10;2.00;;;17.30;99.90;;;;;;5096749;28;20199;-49
2023/07/28 00:20:33;;;;;;;2.50;2.10;;;17.30;99.90;;;;;;5097110;28;20174;-48
2023/07/28 00:22:58;;;;;;;1.80;1.70;;;17.30;99.90;;;;;;5096812;28;20433;-48
2023/07/28 00:25:24;;;;;;;1.67;1.57;;;17.40;99.90;;;;;;5095915;28;20179;-47
2023/07/28 00:27:50;;;;;;;1.30;1.20;;;17.30;99.90;;;;;;5096697;28;20176;-46
2023/07/28 00:30:16;;;;;;;1.93;1.73;;;17.30;99.90;;;;;;5096129;28;20175;-44
2023/07/28 00:32:41;;;;;;;1.90;1.80;;;17.30;99.90;;;;;;5095960;28;20535;-46
2023/07/28 00:35:07;;;;;;;1.97;1.50;;;17.30;99.90;;;;;;5111498;28;20223;-50
2023/07/28 00:37:33;;;;;;;1.77;1.67;;;17.30;99.90;;;;;;5099964;28;20164;-47
2023/07/28 00:39:58;;;;;;;1.90;1.73;;;17.30;99.90;;;;;;5099262;28;20175;-49
2023/07/28 00:42:24;;;;;;;1.90;1.70;;;17.30;99.90;;;;;;5116486;28;20482;-45
2023/07/28 00:44:50;;;;;;;1.70;1.60;;;17.30;99.90;;;;;;5116694;28;20175;-44
2023/07/28 00:47:16;;;;;;;1.50;1.40;;;17.30;99.90;;;;;;5116945;28;20240;-45
2023/07/28 00:49:42;;;;;;;1.60;1.50;;;17.30;99.90;;;;;;5098607;28;20266;-48
2023/07/28 00:52:08;;;;;;;3.40;2.10;;;17.30;99.90;;;;;;5098626;28;20167;-48
2023/07/28 00:54:34;;;;;;;2.00;1.80;;;17.30;99.90;;;;;;5099066;28;20203;-47
2023/07/28 00:57:01;;;;;;;2.07;1.87;;;17.30;99.90;;;;;;5099616;28;20201;-48
2023/07/28 00:59:27;;;;;;;1.63;1.53;;;17.30;99.90;;;;;;5099008;28;20175;-46
2023/07/28 01:01:53;;;;;;;1.50;1.40;;;17.30;99.90;;;;;;5098991;28;20173;-44
2023/07/28 01:04:19;;;;;;;1.60;1.50;;;17.30;99.90;;;;;;5098650;28;20190;-44
2023/07/28 01:06:52;;;;;;;1.67;1.57;;;17.30;99.90;;;;;;5099315;28;20281;-44
2023/07/28 01:09:22;;;;;;;3.43;1.70;;;17.30;99.90;;;;;;5098680;28;20210;-45
2023/07/28 01:11:58;;;;;;;1.83;1.73;;;17.30;99.90;;;;;;5098244;28;20214;-44
2023/07/28 01:14:24;;;;;;;3.90;1.60;;;17.30;99.90;;;;;;5098118;28;20416;-48
2023/07/28 01:16:50;;;;;;;1.30;1.20;;;17.30;99.90;;;;;;5118421;28;20217;-45
2023/07/28 01:19:21;;;;;;;2.20;1.80;;;17.30;99.90;;;;;;5100414;28;20180;-44
2023/07/28 01:22:03;;;;;;;1.50;1.40;;;17.30;99.90;;;;;;5100675;28;20167;-44
2023/07/28 01:25:06;;;;;;;1.60;1.50;;;17.30;99.90;;;;;;5118446;28;20203;-45
2023/07/28 01:27:32;;;;;;;1.70;1.60;;;17.30;99.90;;;;;;5117442;28;20648;-45
2023/07/28 01:29:59;;;;;;;1.50;1.30;;;17.30;99.90;;;;;;5100878;28;20210;-48
2023/07/28 01:32:24;;;;;;;1.47;1.37;;;17.30;99.90;;;;;;5100229;28;20457;-48
2023/07/28 01:34:50;;;;;;;1.53;1.43;;;17.30;99.90;;;;;;5096993;28;20284;-49
2023/07/28 01:37:15;;;;;;;1.53;1.43;;;17.30;99.90;;;;;;5098302;28;20199;-46
2023/07/28 01:39:57;;;;;;;1.50;1.40;;;17.30;99.90;;;;;;5099423;28;20175;-47
2023/07/28 01:42:23;;;;;;;1.20;1.10;;;17.30;99.90;;;;;;5099112;28;20156;-47
2023/07/28 01:44:49;;;;;;;1.10;1.10;;;17.30;99.90;;;;;;5099034;28;20182;-46
2023/07/28 01:47:15;;;;;;;1.30;1.20;;;17.30;99.90;;;;;;5099720;28;20179;-48
2023/07/28 01:49:40;;;;;;;1.50;1.07;;;17.30;99.90;;;;;;5099440;28;20172;-48
2023/07/28 01:52:06;;;;;;;1.40;1.30;;;17.30;99.90;;;;;;5099779;28;20165;-48
2023/07/28 01:54:32;;;;;;;1.40;1.30;;;17.30;99.90;;;;;;5099190;28;20200;-46
2023/07/28 01:56:57;;;;;;;1.10;1.10;;;17.30;99.90;;;;;;5098849;28;20164;-49
2023/07/28 01:59:29;;;;;;;1.50;1.40;;;17.30;99.90;;;;;;5098528;28;20431;-44
2023/07/28 02:01:55;;;;;;;1.80;1.60;;;17.30;99.90;;;;;;5098724;28;20202;-45
2023/07/28 02:04:20;;;;;;;2.60;1.30;;;17.30;99.90;;;;;;5098370;28;20232;-46
2023/07/28 02:06:46;;;;;;;2.53;1.70;;;17.30;99.90;;;;;;5098894;28;20237;-46
2023/07/28 02:09:12;;;;;;;1.53;1.43;;;17.30;99.90;;;;;;5097930;28;20506;-44
2023/07/28 02:11:37;;;;;;;2.57;1.47;;;17.30;99.90;;;;;;5097655;28;20168;-44
2023/07/28 02:14:03;;;;;;;1.00;1.00;;;17.20;99.90;;;;;;5095790;28;20203;-46
2023/07/28 02:16:30;;;;;;;1.20;1.10;;;17.30;99.90;;;;;;5094022;28;20164;-47
2023/07/28 02:18:56;;;;;;;1.80;1.70;;;17.20;99.90;;;;;;5094832;28;20490;-46
2023/07/28 02:21:22;;;;;;;1.13;1.10;;;17.20;99.90;;;;;;5098879;28;20164;-50
2023/07/28 02:23:49;;;;;;;1.30;1.20;;;17.20;99.90;;;;;;5098220;28;20172;-49
2023/07/28 02:26:14;;;;;;;1.70;1.60;;;17.30;99.90;;;;;;5096936;28;20216;-50
2023/07/28 02:28:40;;;;;;;1.60;1.50;;;17.20;99.90;;;;;;5098442;28;20204;-47
2023/07/28 02:31:06;;;;;;;2.73;1.70;;;17.20;99.90;;;;;;5098429;28;20165;-45
2023/07/28 02:33:35;;;;;;;1.70;1.60;;;17.20;99.90;;;;;;5098301;28;20204;-45
2023/07/28 02:36:01;;;;;;;1.63;1.53;;;17.20;99.90;;;;;;5100411;28;20175;-45
2023/07/28 02:38:27;;;;;;;1.87;1.77;;;17.20;99.90;;;;;;5101309;28;20236;-50
2023/07/28 02:40:53;;;;;;;2.93;1.60;;;17.20;99.90;;;;;;5101441;28;20202;-47
2023/07/28 02:43:18;;;;;;;1.80;1.70;;;17.20;99.90;;;;;;5100578;28;20178;-49
2023/07/28 02:45:53;;;;;;;2.23;1.50;;;17.20;99.90;;;;;;5118328;28;20167;-50
2023/07/28 02:48:21;;;;;;;2.20;1.80;;;17.20;99.90;;;;;;5100541;28;20231;-50
2023/07/28 02:50:47;;;;;;;3.60;1.70;;;17.20;99.90;;;;;;5101123;28;20278;-46
2023/07/28 02:53:13;;;;;;;4.50;2.27;;;17.20;99.90;;;;;;5118795;28;20293;-45
2023/07/28 02:55:43;;;;;;;2.30;2.10;;;17.20;99.90;;;;;;5101476;28;20168;-44
2023/07/28 02:58:09;;;;;;;2.30;2.07;;;17.10;99.90;;;;;;5101153;28;20232;-45
2023/07/28 03:00:43;;;;;;;2.97;2.00;;;17.10;99.90;;;;;;5100818;28;20175;-44
2023/07/28 03:03:17;;;;;;;2.07;1.90;;;17.10;99.90;;;;;;5117700;28;20171;-49
2023/07/28 03:05:43;;;;;;;2.87;2.23;;;17.20;99.90;;;;;;5100632;28;20182;-49
2023/07/28 03:08:09;;;;;;;2.60;2.40;;;17.10;99.90;;;;;;5100878;28;20243;-46
2023/07/28 03:10:35;;;;;;;2.63;2.40;;;17.10;99.90;;;;;;5100579;28;20167;-49
2023/07/28 03:13:01;;;;;;;2.60;2.27;;;17.00;99.90;;;;;;5117822;28;20214;-45
2023/07/28 03:15:26;;;;;;;2.40;2.20;;;17.10;99.90;;;;;;5100931;28;20166;-44
2023/07/28 03:17:54;;;;;;;2.40;2.20;;;17.10;99.90;;;;;;5099974;28;20159;-49
2023/07/28 03:20:21;;;;;;;2.00;1.80;;;17.10;99.90;;;;;;5100214;28;20269;-46
2023/07/28 03:22:46;;;;;;;2.20;2.00;;;17.10;99.90;;;;;;5118208;28;20244;-45
2023/07/28 03:25:12;;;;;;;2.07;1.70;;;17.10;99.90;;;;;;5100045;28;20491;-47
2023/07/28 03:27:38;;;;;;;1.80;1.70;;;17.10;99.90;;;;;;5100080;28;20580;-47
2023/07/28 03:30:06;;;;;;;1.73;1.63;;;17.10;99.90;;;;;;5099922;28;20168;-49
2023/07/28 03:32:32;;;;;;;1.90;1.70;;;17.10;99.90;;;;;;5099649;28;20288;-48
2023/07/28 03:34:58;;;;;;;1.87;1.67;;;17.10;99.90;;;;;;5117282;28;20310;-45
2023/07/28 03:37:23;;;;;;;1.83;1.73;;;17.10;99.90;;;;;;5099812;28;20179;-49
2023/07/28 03:39:49;;;;;;;2.87;1.53;;;17.10;99.90;;;;;;5099267;28;20175;-51
2023/07/28 03:42:15;;;;;;;1.50;1.40;;;17.10;99.90;;;;;;5099456;28;20174;-45
2023/07/28 03:44:41;;;;;;;1.67;1.57;;;17.00;99.90;;;;;;5117042;28;20168;-44
2023/07/28 03:47:25;;;;;;;1.50;1.20;;;17.00;99.90;;;;;;5100608;28;20172;-50
2023/07/28 03:49:51;;;;;;;1.83;1.73;;;17.00;99.90;;;;;;5099619;28;20187;-47
2023/07/28 03:52:17;;;;;;;1.40;1.30;;;17.00;99.90;;;;;;5099749;28;20190;-46
2023/07/28 03:54:42;;;;;;;1.33;1.23;;;17.00;99.90;;;;;;5099360;28;20203;-50
2023/07/28 03:57:09;;;;;;;1.43;1.33;;;17.00;99.90;;;;;;5099858;28;20175;-50
2023/07/28 03:59:35;;;;;;;1.87;1.50;;;17.00;99.90;;;;;;5100229;28;20178;-48
2023/07/28 04:02:00;;;;;;;1.40;1.30;;;17.00;99.90;;;;;;5099325;28;20171;-46
2023/07/28 04:04:26;;;;;;;1.50;1.40;;;17.10;99.90;;;;;;5099780;28;20175;-48
2023/07/28 04:06:53;;;;;;;1.80;1.70;;;17.00;99.90;;;;;;5099371;28;20206;-48
2023/07/28 04:09:22;;;;;;;1.10;1.10;;;17.00;99.90;;;;;;5099203;28;20175;-44
2023/07/28 04:11:49;;;;;;;1.30;1.20;;;17.00;99.90;;;;;;5100489;28;20191;-45
2023/07/28 04:14:14;;;;;;;1.40;1.30;;;17.00;99.90;;;;;;5117476;28;20199;-46
2023/07/28 04:16:40;;;;;;;1.20;1.10;;;17.10;99.90;;;;;;5099710;28;20468;-47
2023/07/28 04:19:06;;;;;;;1.87;1.40;;;17.10;99.90;;;;;;5098004;28;20171;-45
2023/07/28 04:21:31;;;;;;;1.20;1.20;;;17.10;99.90;;;;;;5099168;28;20175;-49
2023/07/28 04:23:57;;;;;;;2.07;1.30;;;17.10;99.90;;;;;;5098533;28;20167;-47
2023/07/28 04:26:24;;;;;;;2.70;1.10;;;17.10;99.90;;;;;;5116904;28;20193;-47
2023/07/28 04:28:50;;;;;;;1.60;1.30;;;17.10;99.90;;;;;;5116489;28;20168;-48
2023/07/28 04:31:19;;;;;;;1.37;1.27;;;17.10;99.90;;;;;;5097585;28;20178;-49
2023/07/28 04:33:44;;;;;;;2.27;1.50;;;17.10;99.90;;;;;;5098311;28;20338;-48
2023/07/28 04:36:10;;;;;;;1.43;1.33;;;17.10;99.90;;;;;;5098751;28;20266;-50
2023/07/28 04:38:36;;;;;;;4.30;1.87;;;17.10;99.90;;;;;;5115738;28;20962;-50
2023/07/28 04:41:01;;;;;;;1.93;1.83;;;17.10;99.90;;;;;;5097718;28;20167;-45
2023/07/28 04:43:28;;;;;;;1.80;1.70;;;17.10;99.90;;;;;;5098045;28;20213;-47
2023/07/28 04:45:53;;;;;;;3.30;1.90;;;17.10;99.90;;;;;;5098424;28;20167;-47
2023/07/28 04:48:19;;;;;;;1.90;1.80;;;17.10;99.90;;;;;;5098726;28;20178;-48
2023/07/28 04:50:45;;;;;;;1.83;1.73;;;17.10;99.90;;;;;;5097646;28;20574;-47
2023/07/28 04:53:11;;;;;;;1.70;1.60;;;17.10;99.90;;;;;;5098935;28;20255;-46
2023/07/28 04:55:36;;;;;;;2.10;1.90;;;17.10;99.90;;;;;;5099396;28;20251;-44
2023/07/28 04:58:02;;;;;;;1.90;1.80;;;17.10;99.90;;;;;;5099418;28;20204;-45
2023/07/28 05:00:28;;;;;;;2.57;2.37;;;17.10;99.90;;;;;;5117134;28;20170;-46
2023/07/28 05:02:54;;;;;;;2.10;2.00;;;17.10;99.90;;;;;;5099062;28;20657;-47
2023/07/28 05:05:19;;;;;;;2.03;1.93;;;17.10;99.90;;;;;;5099081;28;20175;-44
2023/07/28 05:07:45;;;;;;;1.97;1.87;;;17.10;99.90;;;;;;5098253;28;20179;-47
2023/07/28 05:10:10;;;;;;;3.87;2.10;;;17.10;99.90;;;;;;5097888;28;20173;-46
2023/07/28 05:12:36;;;;;;;3.93;1.90;;;17.20;99.90;;;;;;5115458;28;20266;-46
2023/07/28 05:15:02;;;;;;;2.47;2.10;;;17.20;99.90;;;;;;5115307;28;20542;-48
2023/07/28 05:17:28;;;;;;;1.77;1.67;;;17.20;99.90;;;;;;5097815;28;20263;-46
2023/07/28 05:19:53;;;;;;;2.27;2.07;;;17.20;99.90;;;;;;5098597;28;20195;-45
2023/07/28 05:22:19;;;;;;;2.73;2.20;;;17.20;99.90;;;;;;5098066;28;20202;-46
2023/07/28 05:24:45;;;;;;;1.93;1.83;;;17.30;99.90;;;;;;5097209;28;20175;-45
2023/07/28 05:27:11;;;;;;;1.87;1.77;;;17.30;99.90;;;;;;5097228;28;20177;-45
2023/07/28 05:29:37;;;;;;;1.97;1.87;;;17.30;99.90;;;;;;5097046;28;20179;-46
2023/07/28 05:32:03;;;;;;;2.27;2.07;;;17.30;99.90;;;;;;5097048;28;20236;-45
2023/07/28 05:34:29;;;;;;;1.67;1.57;;;17.30;99.90;;;;;;5114907;28;20227;-46
2023/07/28 05:36:56;;;;;;;1.80;1.70;;;17.30;99.90;;;;;;5097900;28;20224;-48
2023/07/28 05:39:23;;;;;;;1.67;1.57;;;17.40;99.90;;;;;;5097916;28;20214;-44
2023/07/28 05:41:48;;;;;;;2.00;1.33;;;17.40;99.90;;;;;;5097261;28;20174;-48
2023/07/28 05:44:14;;;;;;;1.77;1.67;;;17.40;99.90;;;;;;5115175;28;20254;-47
2023/07/28 05:46:41;;;;;;;2.80;2.17;;;17.40;99.90;;;;;;5114903;28;20171;-44
2023/07/28 05:49:09;;;;;;;2.10;1.90;;;17.40;99.90;;;;;;5114999;28;20176;-48
2023/07/28 05:51:36;;;;;;;2.00;1.90;;;17.40;99.90;;;;;;5097628;28;20171;-47
2023/07/28 05:54:02;;;;;;;1.47;1.37;;;17.40;99.90;;;;;;5097186;28;20207;-50
2023/07/28 05:56:27;;;;;;;1.90;1.80;;;17.40;99.90;;;;;;5098019;28;20184;-47
2023/07/28 05:59:02;;;;;;;2.07;1.97;;;17.40;99.90;;;;;;5097492;28;20285;-49
2023/07/28 06:01:28;;;;;;;3.30;1.80;;;17.40;99.90;;;;;;5099011;28;20166;-46
2023/07/28 06:03:58;;;;;;;2.00;1.90;;;17.40;99.90;;;;;;5099922;28;20182;-46
2023/07/28 06:06:27;;;;;;;1.77;1.67;;;17.40;99.90;;;;;;5099323;28;20175;-49
2023/07/28 06:08:53;;;;;;;1.77;1.50;;;17.50;99.90;;;;;;5116813;28;20198;-48
2023/07/28 06:11:20;;;;;;;2.00;1.83;;;17.50;99.90;;;;;;5114912;28;20460;-49
2023/07/28 06:13:47;;;;;;;2.27;2.07;;;17.50;99.90;;;;;;5096036;28;20608;-50
2023/07/28 06:16:18;;;;;;;2.87;1.70;;;17.60;99.90;;;;;;5079956;28;20171;-50
2023/07/28 06:18:45;;;;;;;1.87;1.70;;;17.60;99.90;;;;;;5111510;28;20160;-44
2023/07/28 06:21:12;;;;;;;1.83;1.50;;;17.60;99.90;;;;;;5081196;28;20220;-46
2023/07/28 06:23:38;;;;;;;1.50;1.40;;;17.60;99.90;;;;;;5116454;28;20246;-48
2023/07/28 06:26:05;;;;;;;2.20;1.70;;;17.70;99.90;;;;;;5099413;28;20324;-44
2023/07/28 06:28:30;;;;;;;2.00;1.90;;;17.80;99.90;;;;;;5099497;28;20210;-47
2023/07/28 06:30:58;;;;;;;1.40;1.30;;;17.80;99.90;;;;;;5098892;28;20653;-47
2023/07/28 06:33:25;;;;;;;1.70;1.60;;;17.90;99.90;;;;;;5099716;28;20202;-46
2023/07/28 06:35:52;;;;;;;1.60;1.50;;;17.90;99.90;;;;;;5099094;28;20174;-45
2023/07/28 06:38:17;;;;;;;1.70;1.60;;;18.00;99.90;;;;;;5099915;28;20228;-45
2023/07/28 06:40:44;;;;;;;1.73;1.60;;;18.00;99.90;;;;;;5099162;28;20263;-45
2023/07/28 06:43:10;;;;;;;3.40;1.83;;;18.00;99.90;;;;;;5096986;28;20286;-50
2023/07/28 06:45:36;;;;;;;1.77;1.67;;;18.00;99.90;;;;;;5097064;28;20733;-48
2023/07/28 06:48:01;;;;;;;1.57;1.47;;;18.00;99.90;;;;;;5078506;28;20278;-48
2023/07/28 06:50:29;;;;;;;1.50;1.40;;;18.00;99.90;;;;;;5094609;28;20238;-48
2023/07/28 06:52:54;;;;;;;1.70;1.60;;;17.90;99.90;;;;;;5094047;28;20321;-47
2023/07/28 06:55:21;;;;;;;1.90;1.80;;;18.00;99.90;;;;;;5077512;28;20262;-47
2023/07/28 06:57:49;;;;;;;2.30;1.20;;;17.90;99.90;;;;;;5112422;28;20174;-50
2023/07/28 07:00:17;;;;;;;1.80;1.60;;;18.00;99.90;;;;;;5095031;28;20198;-46
2023/07/28 07:02:44;;;;;;;2.10;1.43;;;18.00;99.90;;;;;;5113766;28;20204;-46
2023/07/28 07:05:11;;;;;;;0.90;0.90;;;18.00;99.90;;;;;;5096781;28;20167;-48
2023/07/28 07:07:39;;;;;;;1.47;1.33;;;18.10;99.90;;;;;;5114186;28;20164;-47
2023/07/28 07:10:06;;;;;;;1.63;1.53;;;18.10;99.90;;;;;;5114922;28;20216;-49
2023/07/28 07:12:32;;;;;;;1.50;1.33;;;18.10;99.90;;;;;;5096346;28;20172;-48
2023/07/28 07:14:59;;;;;;;1.83;1.40;;;18.10;99.90;;;;;;5096722;28;20199;-49
2023/07/28 07:17:24;;;;;;;1.40;1.30;;;18.20;99.90;;;;;;5095557;28;20273;-47
2023/07/28 07:19:52;;;;;;;1.90;1.80;;;18.20;99.90;;;;;;5096240;28;20253;-46
2023/07/28 07:22:19;;;;;;;3.27;1.50;;;18.10;99.90;;;;;;5095320;28;20509;-49
2023/07/28 07:24:46;;;;;;;1.70;1.50;;;18.10;99.90;;;;;;5095962;28;20485;-45
2023/07/28 07:27:12;;;;;;;2.20;2.00;;;18.20;99.90;;;;;;5113349;28;20171;-45
2023/07/28 07:29:40;;;;;;;1.87;1.27;;;18.10;99.90;;;;;;5097192;28;20175;-45
2023/07/28 07:32:07;;;;;;;3.00;1.90;;;18.20;99.90;;;;;;5096835;28;20320;-51
2023/07/28 07:34:34;;;;;;;2.40;1.40;;;18.20;99.90;;;;;;5086940;28;20246;-48
2023/07/28 07:37:00;;;;;;;2.53;1.30;;;18.30;99.90;;;;;;5076271;28;20603;-46
2023/07/28 07:39:25;;;;;;;1.67;1.10;;;18.30;99.90;;;;;;5076231;28;20203;-48
2023/07/28 07:41:51;;;;;;;1.47;1.37;;;18.40;99.90;;;;;;5076758;28;20216;-49
2023/07/28 07:44:18;;;;;;;1.03;1.03;;;18.40;99.90;;;;;;5076519;28;20168;-46
2023/07/28 07:46:43;;;;;;;1.20;1.10;;;18.40;99.90;;;;;;5076796;28;20583;-45
2023/07/28 07:49:09;;;;;;;1.57;1.47;;;18.50;99.90;;;;;;5077713;28;20169;-48
2023/07/28 07:51:34;;;;;;;1.30;1.20;;;18.40;99.90;;;;;;5077725;28;20172;-46
2023/07/28 07:54:01;;;;;;;1.00;1.00;;;18.50;99.90;;;;;;5095849;28;20199;-46
2023/07/28 07:56:28;;;;;;;1.80;1.30;;;18.50;99.90;;;;;;5095778;28;20225;-45
2023/07/28 07:58:54;;;;;;;0.90;0.90;;;18.50;99.90;;;;;;5078461;28;20172;-46
2023/07/28 08:01:20;;;;;;;1.20;1.10;;;18.50;99.90;;;;;;5077324;28;20172;-50
2023/07/28 08:03:45;;;;;;;1.63;1.30;;;18.60;99.90;;;;;;5074910;28;20229;-46
2023/07/28 08:06:12;;;;;;;1.20;1.10;;;18.60;99.90;;;;;;5076353;28;20172;-45
2023/07/28 08:08:38;;;;;;;1.30;1.20;;;18.70;99.90;;;;;;5076972;28;20172;-46
2023/07/28 08:11:07;;;;;;;1.60;1.20;;;18.70;99.90;;;;;;5076061;28;20172;-51
2023/07/28 08:13:33;;;;;;;1.57;1.30;;;18.70;99.90;;;;;;5058895;28;20277;-47
2023/07/28 08:15:58;;;;;;;1.67;1.20;;;18.80;99.90;;;;;;5093278;28;20156;-52
2023/07/28 08:18:24;;;;;;;1.27;1.17;;;18.90;99.90;;;;;;5076329;28;20793;-52
2023/07/28 08:20:50;;;;;;;1.03;1.03;;;18.90;99.90;;;;;;5076459;28;20477;-46
2023/07/28 08:23:15;;;;;;;1.90;1.80;;;19.00;99.90;;;;;;5094065;28;20286;-47
2023/07/28 08:25:43;;;;;;;1.70;1.60;;;19.00;99.90;;;;;;5093747;28;20633;-46
2023/07/28 08:28:09;;;;;;;1.40;1.30;;;19.00;99.90;;;;;;5092792;28;20164;-46
2023/07/28 08:30:34;;;;;;;1.87;1.50;;;19.00;99.90;;;;;;5074814;28;20267;-46
2023/07/28 08:33:00;;;;;;;2.30;1.53;;;18.90;99.90;;;;;;5073879;28;20232;-45
2023/07/28 08:35:25;;;;;;;1.23;1.17;;;19.00;99.90;;;;;;5073263;28;20223;-46
2023/07/28 08:37:51;;;;;;;1.50;1.40;;;19.00;99.90;;;;;;5074173;28;20172;-46
2023/07/28 08:40:17;;;;;;;1.53;1.43;;;18.90;99.90;;;;;;5073591;28;20469;-46
2023/07/28 08:42:43;;;;;;;1.73;1.53;;;18.90;99.90;;;;;;5074516;28;20203;-44
2023/07/28 08:45:09;;;;;;;1.40;1.30;;;18.80;99.90;;;;;;5075477;28;20168;-46
2023/07/28 08:47:36;;;;;;;2.37;1.10;;;18.80;99.90;;;;;;5093291;28;20186;-45
2023/07/28 08:50:01;;;;;;;1.43;1.33;;;18.80;99.90;;;;;;5075313;28;20564;-45
2023/07/28 08:52:27;;;;;;;1.57;1.47;;;18.80;99.90;;;;;;5092444;28;20222;-48
2023/07/28 08:54:53;;;;;;;3.47;1.50;;;18.80;99.90;;;;;;5091988;28;20200;-46
2023/07/28 08:57:22;;;;;;;1.30;1.20;;;18.80;99.90;;;;;;5074558;28;20172;-45
2023/07/28 08:59:48;;;;;;;1.30;1.13;;;18.80;99.90;;;;;;5057933;28;20174;-45
2023/07/28 09:02:16;;;;;;;1.47;1.30;;;18.80;99.90;;;;;;5076038;28;20178;-48
2023/07/28 09:04:43;;;;;;;1.33;1.13;;;18.80;99.90;;;;;;5075512;28;20271;-46
2023/07/28 09:07:09;;;;;;;1.00;0.90;;;18.80;99.90;;;;;;5075339;28;20241;-48
2023/07/28 09:09:36;;;;;;;1.23;1.13;;;18.80;99.90;;;;;;5092264;28;20653;-49
2023/07/28 09:12:04;;;;;;;1.80;1.37;;;18.90;99.90;;;;;;5090979;28;20172;-45
2023/07/28 09:14:35;;;;;;;1.50;1.30;;;18.90;99.90;;;;;;5091080;28;20200;-44
2023/07/28 09:17:15;;;;;;;2.47;1.43;;;18.90;99.90;;;;;;5058325;28;20207;-45
2023/07/28 09:19:54;;;;;;;1.60;1.50;;;18.90;99.90;;;;;;5074286;28;20390;-46
2023/07/28 09:22:20;;;;;;;1.77;1.50;;;18.90;99.90;;;;;;5058609;28;20243;-46
2023/07/28 09:24:47;;;;;;;1.43;1.33;;;19.00;99.90;;;;;;5075489;28;20192;-45
2023/07/28 09:27:29;;;;;;;1.07;1.07;;;19.00;99.90;;;;;;5074065;28;20179;-48
2023/07/28 09:29:56;;;;;;;1.40;1.30;;;19.00;99.90;;;;;;5092139;28;20430;-44
2023/07/28 09:32:37;;;;;;;1.30;1.20;;;19.00;99.90;;;;;;5091598;28;20793;-46
2023/07/28 09:35:12;;;;;;;1.40;1.30;;;19.10;99.90;;;;;;5070092;28;20529;-46
2023/07/28 09:37:44;;;;;;;1.33;1.23;;;19.10;99.90;;;;;;5113001;28;20178;-49
2023/07/28 09:40:12;;;;;;;1.27;1.17;;;19.10;99.90;;;;;;5095033;28;20167;-46
2023/07/28 09:42:45;;;;;;;1.30;1.20;;;19.10;99.90;;;;;;5094240;28;20163;-48
2023/07/28 09:45:11;;;;;;;1.30;1.20;;;19.20;99.90;;;;;;5093450;28;20587;-46
2023/07/28 09:47:39;;;;;;;1.40;1.20;;;19.20;99.90;;;;;;5093968;28;20235;-51
2023/07/28 09:50:08;;;;;;;1.17;1.07;;;19.20;99.90;;;;;;5095162;28;20222;-48
2023/07/28 09:53:02;;;;;;;1.77;1.40;;;19.20;99.90;;;;;;5115683;28;20164;-49
2023/07/28 09:55:28;;;;;;;2.50;1.20;;;19.20;99.90;;;;;;5094420;28;20179;-49
2023/07/28 09:57:56;;;;;;;1.30;1.20;;;19.30;99.90;;;;;;5116672;28;20162;-44
2023/07/28 10:00:23;;;;;;;1.40;1.33;;;19.30;99.90;;;;;;5117865;28;20196;-44
2023/07/28 10:02:50;;;;;;;1.50;1.30;;;19.30;99.90;;;;;;5099046;28;20163;-47
2023/07/28 10:05:17;;;;;;;1.33;1.23;;;19.30;99.90;;;;;;5098143;28;20163;-46
2023/07/28 10:07:44;;;;;;;1.10;1.10;;;19.30;99.90;;;;;;5098213;28;20171;-47
2023/07/28 10:10:12;;;;;;;2.90;1.20;;;19.40;99.90;;;;;;5098072;28;20262;-50
2023/07/28 10:12:42;;;;;;;1.20;1.10;;;19.40;99.90;;;;;;5116622;28;20163;-48
2023/07/28 10:15:15;;;;;;;1.87;1.73;;;19.40;99.90;;;;;;5099046;28;20172;-49
2023/07/28 10:17:47;;;;;;;2.57;1.20;;;19.40;99.90;;;;;;5098545;28;20175;-45
2023/07/28 10:20:32;;;;;;;1.33;1.30;;;19.50;99.90;;;;;;5099122;28;20266;-52
2023/07/28 10:23:14;;;;;;;1.37;1.27;;;19.50;99.90;;;;;;5097880;28;20195;-49
2023/07/28 10:25:41;;;;;;;5.83;1.87;;;19.60;99.90;;;;;;5098120;28;20163;-45
2023/07/28 10:28:31;;;;;;;1.87;1.20;;;19.70;99.90;;;;;;5097425;28;20183;-49
2023/07/28 10:30:58;;;;;;;1.40;1.30;;;19.60;99.90;;;;;;5114209;28;20159;-50
2023/07/28 10:33:39;;;;;;;1.40;1.30;;;19.70;99.90;;;;;;5096942;28;20199;-45
2023/07/28 10:36:13;;;;;;;2.00;1.50;;;19.70;99.90;;;;;;5079569;28;20183;-49
2023/07/28 10:38:39;;;;;;;1.50;1.40;;;19.70;99.90;;;;;;5097207;28;20192;-45
2023/07/28 10:41:11;;;;;;;2.57;1.73;;;19.70;99.90;;;;;;5079511;28;20172;-47
2023/07/28 10:43:39;;;;;;;1.47;1.37;;;19.60;99.90;;;;;;5076088;28;20176;-45
2023/07/28 10:46:09;;;;;;;1.53;1.30;;;19.60;99.90;;;;;;5093156;28;20187;-48
2023/07/28 10:48:36;;;;;;;1.33;1.23;;;19.60;99.90;;;;;;5092962;28;20198;-47
2023/07/28 10:51:02;;;;;;;1.37;1.30;;;19.70;99.90;;;;;;5076653;28;20199;-49
2023/07/28 10:53:27;;;;;;;1.60;1.50;;;19.70;99.90;;;;;;5094693;28;20253;-48
2023/07/28 10:55:53;;;;;;;3.53;1.63;;;19.70;99.90;;;;;;5077111;28;20175;-49
2023/07/28 10:58:20;;;;;;;1.37;1.27;;;19.70;99.90;;;;;;5076929;28;20168;-52
2023/07/28 11:00:49;;;;;;;1.70;1.23;;;19.70;99.90;;;;;;5076633;28;20632;-51
2023/07/28 11:03:15;;;;;;;1.60;1.10;;;19.80;99.90;;;;;;5076105;28;20172;-49
2023/07/28 11:05:42;;;;;;;3.27;1.50;;;19.80;99.90;;;;;;5075820;28;20670;-50
2023/07/28 11:08:08;;;;;;;1.80;1.70;;;19.90;99.90;;;;;;5094216;28;20183;-52
2023/07/28 11:10:35;;;;;;;1.93;1.33;;;19.90;99.90;;;;;;5076501;28;20168;-51
2023/07/28 11:13:02;;;;;;;1.77;1.30;;;19.90;99.90;;;;;;5092655;28;20306;-47
2023/07/28 11:15:28;;;;;;;1.30;1.20;;;20.00;99.90;;;;;;5076604;28;20259;-48
2023/07/28 11:17:55;;;;;;;1.50;1.40;;;20.10;99.90;;;;;;5076483;28;20328;-50
2023/07/28 11:20:28;;;;;;;4.63;1.60;;;20.10;99.90;;;;;;5076151;28;20168;-45
2023/07/28 11:23:03;;;;;;;1.83;1.40;;;20.20;99.90;;;;;;5093951;28;20247;-46
2023/07/28 11:25:32;;;;;;;1.10;1.00;;;20.30;99.90;;;;;;5076368;28;20828;-46
2023/07/28 11:28:05;;;;;;;1.67;1.43;;;20.30;99.90;;;;;;5059893;28;20172;-52
2023/07/28 11:30:31;;;;;;;1.40;1.30;;;20.40;99.90;;;;;;5091152;28;20163;-47
2023/07/28 11:32:58;;;;;;;1.57;1.47;;;20.40;99.90;;;;;;5091317;28;20669;-46
2023/07/28 11:35:25;;;;;;;1.20;1.10;;;20.50;99.90;;;;;;5090851;28;20220;-46
2023/07/28 11:37:53;;;;;;;1.47;1.37;;;20.70;99.90;;;;;;5073238;28;20453;-45
2023/07/28 11:40:21;;;;;;;1.50;1.40;;;20.90;99.90;;;;;;5069276;28;20171;-46
2023/07/28 11:42:53;;;;;;;1.17;1.10;;;21.00;99.90;;;;;;5070349;28;20168;-48
2023/07/28 11:45:19;;;;;;;1.50;1.40;;;21.10;99.90;;;;;;5053792;28;20168;-48
2023/07/28 11:48:07;;;;;;;1.23;1.13;;;21.30;99.90;;;;;;5087637;28;20184;-46
2023/07/28 11:50:40;;;;;;;1.40;1.30;;;21.30;99.90;;;;;;5071109;28;20184;-50
2023/07/28 11:53:08;;;;;;;1.50;1.40;;;21.20;99.90;;;;;;5071279;28;20227;-48
2023/07/28 11:55:35;;;;;;;1.50;1.40;;;21.10;99.90;;;;;;5055310;28;20180;-48
2023/07/28 11:58:05;;;;;;;1.33;1.23;;;21.00;99.90;;;;;;5090700;28;20172;-46
2023/07/28 12:00:37;;;;;;;1.10;1.10;;;21.00;99.90;;;;;;5091785;28;20167;-46
2023/07/28 12:03:05;;;;;;;1.00;1.00;;;21.00;99.90;;;;;;5074129;28;20172;-48
2023/07/28 12:05:32;;;;;;;1.43;1.33;;;21.00;99.90;;;;;;5058126;28;20173;-45
2023/07/28 12:08:01;;;;;;;3.87;2.00;;;21.00;99.90;;;;;;5076042;28;20202;-46
2023/07/28 12:10:27;;;;;;;1.30;1.20;;;21.00;99.90;;;;;;5092536;28;20156;-47
2023/07/28 12:12:54;;;;;;;1.30;1.20;;;21.00;99.90;;;;;;5091965;28;20172;-46
2023/07/28 12:15:23;;;;;;;0.90;0.90;;;21.10;99.90;;;;;;5073943;28;20164;-46
2023/07/28 12:18:12;;;;;;;1.33;1.23;;;21.20;99.90;;;;;;5073967;28;20206;-49
2023/07/28 12:20:47;;;;;;;1.37;1.20;;;21.30;99.90;;;;;;5075888;28;20536;-47
2023/07/28 12:23:16;;;;;;;1.40;1.30;;;21.40;99.90;;;;;;5075859;28;20179;-49
2023/07/28 12:25:42;;;;;;;1.17;1.07;;;21.30;99.90;;;;;;5090773;28;20168;-48
2023/07/28 12:28:07;;;;;;;1.27;1.20;;;21.30;99.90;;;;;;5072746;28;20172;-49
2023/07/28 12:30:34;;;;;;;1.20;1.10;;;21.30;99.90;;;;;;5071026;28;20211;-49
2023/07/28 12:33:01;;;;;;;1.60;1.50;;;21.30;99.90;;;;;;5072214;28;20176;-51
2023/07/28 12:35:31;;;;;;;1.27;1.20;;;21.20;99.90;;;;;;5055538;28;20228;-48
2023/07/28 12:38:07;;;;;;;1.10;1.10;;;21.30;99.90;;;;;;5067140;28;20172;-49
2023/07/28 12:40:34;;;;;;;1.17;1.10;;;21.20;99.90;;;;;;5052527;28;20199;-47
2023/07/28 12:43:01;;;;;;;1.50;1.20;;;21.10;99.90;;;;;;5035579;28;20279;-44
2023/07/28 12:45:27;;;;;;;1.13;1.10;;;21.10;99.90;;;;;;5052286;28;20180;-48
2023/07/28 12:47:53;;;;;;;1.40;1.30;;;21.20;99.90;;;;;;5069533;28;20164;-46
2023/07/28 12:50:20;;;;;;;0.90;0.90;;;21.30;99.90;;;;;;5046448;28;20459;-47